createdAt,value
2022-11-01T00:00:52.577Z,63.40
2022-11-01T00:01:47.916Z,57.30
2022-11-01T00:02:43.095Z,60.10
2022-11-01T00:03:38.373Z,54.90
2022-11-01T00:04:33.565Z,57.60
2022-11-01T00:05:28.904Z,60.20
2022-11-01T00:06:24.032Z,52.80
2022-11-01T00:07:19.421Z,50.50
2022-11-01T00:08:14.532Z,51.10
2022-11-01T00:09:09.752Z,49.40
2022-11-01T00:10:05.192Z,51.30
2022-11-01T00:11:00.284Z,55.40
2022-11-01T00:11:55.492Z,53.00
2022-11-01T00:12:50.773Z,53.60
2022-11-01T00:13:45.982Z,57.10
2022-11-01T00:14:41.189Z,59.00
2022-11-01T00:15:36.430Z,58.10
2022-11-01T00:16:31.673Z,57.70
2022-11-01T00:17:26.924Z,52.80
2022-11-01T00:18:22.182Z,52.80
2022-11-01T00:19:17.405Z,55.10
2022-11-01T00:20:12.668Z,55.20
2022-11-01T00:21:07.751Z,56.60
2022-11-01T00:22:02.842Z,57.40
2022-11-01T00:22:57.935Z,56.00
2022-11-01T00:23:53.025Z,53.80
2022-11-01T00:24:48.125Z,52.10
2022-11-01T00:25:43.228Z,50.90
2022-11-01T00:26:38.381Z,52.80
2022-11-01T00:27:33.367Z,61.60
2022-11-01T00:28:28.779Z,47.10
2022-11-01T00:29:23.599Z,48.00
2022-11-01T00:30:18.689Z,61.50
2022-11-01T00:31:14.014Z,62.80
2022-11-01T00:32:08.785Z,93.90
2022-11-01T00:33:03.815Z,63.20
2022-11-01T00:33:58.873Z,78.80
2022-11-01T00:34:53.860Z,83.20
2022-11-01T00:35:49.028Z,83.70
2022-11-01T00:36:43.923Z,77.00
2022-11-01T00:37:38.930Z,90.30
2022-11-01T00:38:33.934Z,50.60
2022-11-01T00:39:31.423Z,55.90
2022-11-01T00:40:25.048Z,50.30
2022-11-01T00:41:20.484Z,52.30
2022-11-01T00:42:15.669Z,52.10
2022-11-01T00:43:11.025Z,57.80
2022-11-01T00:44:06.188Z,50.80
2022-11-01T00:45:01.459Z,50.00
2022-11-01T00:45:56.888Z,49.80
2022-11-01T00:46:51.784Z,51.10
2022-11-01T00:47:47.061Z,48.40
2022-11-01T00:48:42.238Z,47.20
2022-11-01T00:49:37.398Z,50.20
2022-11-01T00:50:32.560Z,44.60
2022-11-01T00:51:27.992Z,49.70
2022-11-01T00:52:22.936Z,48.70
2022-11-01T00:53:18.082Z,46.40
2022-11-01T00:54:14.744Z,47.00
2022-11-01T00:55:09.840Z,49.60
2022-11-01T00:56:05.204Z,45.50
2022-11-01T00:57:00.477Z,42.60
2022-11-01T00:57:55.725Z,48.90
2022-11-01T00:58:50.855Z,43.30
2022-11-01T00:59:45.969Z,43.90
2022-11-01T01:00:40.903Z,46.70
2022-11-01T01:01:36.167Z,42.70
2022-11-01T01:02:31.183Z,52.10
2022-11-01T01:03:26.149Z,43.40
2022-11-01T01:04:21.242Z,43.40
2022-11-01T01:05:16.372Z,47.40
2022-11-01T01:06:11.434Z,40.60
2022-11-01T01:07:06.613Z,39.10
2022-11-01T01:08:01.636Z,41.60
2022-11-01T01:08:56.720Z,41.80
2022-11-01T01:09:53.231Z,40.70
2022-11-01T01:10:48.454Z,46.90
2022-11-01T01:11:43.259Z,47.20
2022-11-01T01:12:38.287Z,43.20
2022-11-01T01:13:33.341Z,47.20
2022-11-01T01:14:32.217Z,44.50
2022-11-01T01:15:23.386Z,43.10
2022-11-01T01:16:18.446Z,47.80
2022-11-01T01:17:13.510Z,46.00
2022-11-01T01:18:08.532Z,46.80
2022-11-01T01:19:03.648Z,46.90
2022-11-01T01:19:58.771Z,40.40
2022-11-01T01:20:54.317Z,47.70
2022-11-01T01:21:49.788Z,44.70
2022-11-01T01:22:44.983Z,45.40
2022-11-01T01:23:40.785Z,47.30
2022-11-01T01:24:36.014Z,47.20
2022-11-01T01:25:31.917Z,46.90
2022-11-01T01:26:27.044Z,44.90
2022-11-01T01:27:22.272Z,39.70
2022-11-01T01:28:18.080Z,40.20
2022-11-01T01:29:13.295Z,39.90
2022-11-01T01:30:08.753Z,41.10
2022-11-01T01:31:04.781Z,37.40
2022-11-01T01:31:59.964Z,31.60
2022-11-01T01:32:55.693Z,35.00
2022-11-01T01:33:50.992Z,30.90
2022-11-01T01:34:46.284Z,34.10
2022-11-01T01:35:42.008Z,32.90
2022-11-01T01:36:37.319Z,31.60
2022-11-01T01:37:33.077Z,35.80
2022-11-01T01:38:28.261Z,32.80
2022-11-01T01:39:23.557Z,35.30
2022-11-01T01:40:19.177Z,30.30
2022-11-01T01:41:14.358Z,30.80
2022-11-01T01:42:09.532Z,35.60
2022-11-01T01:43:06.215Z,32.40
2022-11-01T01:44:01.288Z,32.10
2022-11-01T01:44:56.999Z,36.10
2022-11-01T01:45:52.288Z,36.60
2022-11-01T01:46:47.640Z,33.30
2022-11-01T01:47:43.390Z,37.40
2022-11-01T01:48:38.477Z,28.90
2022-11-01T01:49:36.418Z,31.60
2022-11-01T01:50:29.668Z,37.00
2022-11-01T01:51:25.290Z,36.10
2022-11-01T01:52:20.452Z,35.20
2022-11-01T01:53:16.472Z,43.50
2022-11-01T01:54:11.484Z,33.90
2022-11-01T01:55:06.923Z,30.40
2022-11-01T01:56:02.825Z,34.70
2022-11-01T01:56:57.982Z,32.40
2022-11-01T01:57:53.422Z,35.80
2022-11-01T01:58:49.440Z,33.00
2022-11-01T01:59:44.596Z,29.60
2022-11-01T02:00:40.553Z,30.60
2022-11-01T02:01:35.841Z,33.60
2022-11-01T02:02:31.190Z,31.00
2022-11-01T02:03:27.000Z,27.30
2022-11-01T02:04:22.216Z,29.60
2022-11-01T02:05:18.018Z,30.30
2022-11-01T02:06:13.311Z,30.70
2022-11-01T02:07:08.529Z,32.50
2022-11-01T02:08:03.804Z,31.50
2022-11-01T02:08:58.816Z,28.00
2022-11-01T02:09:54.697Z,32.00
2022-11-01T02:10:49.874Z,27.20
2022-11-01T02:11:45.846Z,26.70
2022-11-01T02:12:40.890Z,31.10
2022-11-01T02:13:36.325Z,32.60
2022-11-01T02:14:32.101Z,27.90
2022-11-01T02:15:27.270Z,32.90
2022-11-01T02:16:22.545Z,28.10
2022-11-01T02:17:18.975Z,30.30
2022-11-01T02:18:14.169Z,32.30
2022-11-01T02:19:09.906Z,31.10
2022-11-01T02:20:05.048Z,31.40
2022-11-01T02:21:00.481Z,29.80
2022-11-01T02:21:56.217Z,29.00
2022-11-01T02:22:51.526Z,29.30
2022-11-01T02:23:46.719Z,29.00
2022-11-01T02:24:41.861Z,27.70
2022-11-01T02:25:37.134Z,31.40
2022-11-01T02:26:32.191Z,28.40
2022-11-01T02:27:27.241Z,29.90
2022-11-01T02:28:22.349Z,32.20
2022-11-01T02:29:17.386Z,28.80
2022-11-01T02:30:12.430Z,25.70
2022-11-01T02:31:07.449Z,24.00
2022-11-01T02:32:02.490Z,25.70
2022-11-01T02:32:57.661Z,24.80
2022-11-01T02:33:52.709Z,33.80
2022-11-01T02:34:48.137Z,27.30
2022-11-01T02:35:43.306Z,26.50
2022-11-01T02:36:38.566Z,29.80
2022-11-01T02:37:33.604Z,24.10
2022-11-01T02:38:28.616Z,27.10
2022-11-01T02:39:23.652Z,30.00
2022-11-01T02:40:18.845Z,26.20
2022-11-01T02:41:13.744Z,31.60
2022-11-01T02:42:08.764Z,30.90
2022-11-01T02:43:04.001Z,28.60
2022-11-01T02:43:58.906Z,24.60
2022-11-01T02:44:53.957Z,31.50
2022-11-01T02:45:48.991Z,31.40
2022-11-01T02:46:44.002Z,29.50
2022-11-01T02:47:39.025Z,25.30
2022-11-01T02:48:39.742Z,27.40
2022-11-01T02:49:34.902Z,25.40
2022-11-01T02:50:30.031Z,29.00
2022-11-01T02:51:25.285Z,29.90
2022-11-01T02:52:20.591Z,28.00
2022-11-01T02:53:15.861Z,28.30
2022-11-01T02:54:11.011Z,22.30
2022-11-01T02:55:06.320Z,27.20
2022-11-01T02:56:01.801Z,28.30
2022-11-01T02:56:56.662Z,27.80
2022-11-01T02:57:51.938Z,22.90
2022-11-01T02:58:47.112Z,31.80
2022-11-01T02:59:42.380Z,24.50
2022-11-01T03:00:37.648Z,23.80
2022-11-01T03:01:32.909Z,24.50
2022-11-01T03:02:28.234Z,26.90
2022-11-01T03:03:24.337Z,24.00
2022-11-01T03:04:19.513Z,29.60
2022-11-01T03:05:14.804Z,28.00
2022-11-01T03:06:09.985Z,30.30
2022-11-01T03:07:05.118Z,26.50
2022-11-01T03:08:00.669Z,23.80
2022-11-01T03:08:55.520Z,24.60
2022-11-01T03:09:50.794Z,24.80
2022-11-01T03:10:46.197Z,24.60
2022-11-01T03:11:41.533Z,24.80
2022-11-01T03:12:36.567Z,24.60
2022-11-01T03:13:31.710Z,27.50
2022-11-01T03:14:26.851Z,27.50
2022-11-01T03:15:22.283Z,26.00
2022-11-01T03:16:17.451Z,27.50
2022-11-01T03:17:12.599Z,24.40
2022-11-01T03:18:07.760Z,24.50
2022-11-01T03:19:03.204Z,25.70
2022-11-01T03:19:58.322Z,25.00
2022-11-01T03:20:53.503Z,28.10
2022-11-01T03:21:48.803Z,23.60
2022-11-01T03:22:44.029Z,26.50
2022-11-01T03:23:39.149Z,22.00
2022-11-01T03:24:34.428Z,22.70
2022-11-01T03:25:29.627Z,26.10
2022-11-01T03:26:24.766Z,26.30
2022-11-01T03:27:20.271Z,29.80
2022-11-01T03:28:15.296Z,22.10
2022-11-01T03:29:10.571Z,27.80
2022-11-01T03:30:05.752Z,25.00
2022-11-01T03:31:00.764Z,24.70
2022-11-01T03:31:55.791Z,22.70
2022-11-01T03:32:50.873Z,26.30
2022-11-01T03:33:45.886Z,20.90
2022-11-01T03:34:41.184Z,25.60
2022-11-01T03:35:36.355Z,23.60
2022-11-01T03:36:31.395Z,25.90
2022-11-01T03:37:30.657Z,24.10
2022-11-01T03:38:25.672Z,26.50
2022-11-01T03:39:20.813Z,27.10
2022-11-01T03:40:15.994Z,29.90
2022-11-01T03:41:11.298Z,28.00
2022-11-01T03:42:06.575Z,23.40
2022-11-01T03:43:01.974Z,27.20
2022-11-01T03:43:56.974Z,27.50
2022-11-01T03:44:52.133Z,23.80
2022-11-01T03:45:47.292Z,25.50
2022-11-01T03:46:42.571Z,27.90
2022-11-01T03:47:38.068Z,23.80
2022-11-01T03:48:33.104Z,28.80
2022-11-01T03:49:28.250Z,27.80
2022-11-01T03:50:23.417Z,24.70
2022-11-01T03:51:18.708Z,27.70
2022-11-01T03:52:14.113Z,27.90
2022-11-01T03:53:09.144Z,25.60
2022-11-01T03:54:04.486Z,29.70
2022-11-01T03:54:59.640Z,22.30
2022-11-01T03:55:54.791Z,26.00
2022-11-01T03:56:50.226Z,24.40
2022-11-01T03:57:45.211Z,27.10
2022-11-01T03:58:40.481Z,26.00
2022-11-01T03:59:35.906Z,21.60
2022-11-01T04:00:30.966Z,25.20
2022-11-01T04:01:26.251Z,26.20
2022-11-01T04:02:21.476Z,25.70
2022-11-01T04:03:16.486Z,24.90
2022-11-01T04:04:11.916Z,25.40
2022-11-01T04:05:07.064Z,21.70
2022-11-01T04:06:02.210Z,23.70
2022-11-01T04:06:57.386Z,22.80
2022-11-01T04:07:52.731Z,19.30
2022-11-01T04:08:47.875Z,26.30
2022-11-01T04:09:43.049Z,22.50
2022-11-01T04:10:38.342Z,25.00
2022-11-01T04:11:33.511Z,29.10
2022-11-01T04:12:28.811Z,23.80
2022-11-01T04:13:23.952Z,22.30
2022-11-01T04:14:19.187Z,20.70
2022-11-01T04:15:14.298Z,23.30
2022-11-01T04:16:09.730Z,26.10
2022-11-01T04:17:04.770Z,27.40
2022-11-01T04:17:59.949Z,27.50
2022-11-01T04:18:55.118Z,25.40
2022-11-01T04:19:50.401Z,22.30
2022-11-01T04:20:45.830Z,24.60
2022-11-01T04:21:41.068Z,24.00
2022-11-01T04:22:36.181Z,26.10
2022-11-01T04:23:31.385Z,25.10
2022-11-01T04:24:26.651Z,28.70
2022-11-01T04:25:22.084Z,25.40
2022-11-01T04:26:17.101Z,23.40
2022-11-01T04:27:12.402Z,24.30
2022-11-01T04:28:07.554Z,26.60
2022-11-01T04:29:02.820Z,22.80
2022-11-01T04:29:58.106Z,22.80
2022-11-01T04:30:53.300Z,27.00
2022-11-01T04:31:48.427Z,21.30
2022-11-01T04:32:43.838Z,24.30
2022-11-01T04:33:39.002Z,21.60
2022-11-01T04:34:34.198Z,22.30
2022-11-01T04:35:29.319Z,24.70
2022-11-01T04:36:24.514Z,26.30
2022-11-01T04:37:19.446Z,25.90
2022-11-01T04:38:14.500Z,20.20
2022-11-01T04:39:09.724Z,21.90
2022-11-01T04:40:04.897Z,27.00
2022-11-01T04:40:59.858Z,22.70
2022-11-01T04:41:54.920Z,22.30
2022-11-01T04:42:50.032Z,21.70
2022-11-01T04:43:45.128Z,29.50
2022-11-01T04:44:40.235Z,25.80
2022-11-01T04:45:35.449Z,30.00
2022-11-01T04:46:30.403Z,25.10
2022-11-01T04:47:25.478Z,25.50
2022-11-01T04:48:20.545Z,30.80
2022-11-01T04:49:15.624Z,29.20
2022-11-01T04:50:10.708Z,28.80
2022-11-01T04:51:05.937Z,23.50
2022-11-01T04:52:00.934Z,22.10
2022-11-01T04:52:56.412Z,24.80
2022-11-01T04:53:51.559Z,27.50
2022-11-01T04:54:46.800Z,25.90
2022-11-01T04:55:42.005Z,28.20
2022-11-01T04:56:37.414Z,26.20
2022-11-01T04:57:32.645Z,25.90
2022-11-01T04:58:27.878Z,28.40
2022-11-01T04:59:23.232Z,29.90
2022-11-01T05:00:18.354Z,22.00
2022-11-01T05:01:13.682Z,22.90
2022-11-01T05:02:08.972Z,24.30
2022-11-01T05:03:04.815Z,24.70
2022-11-01T05:03:59.476Z,24.10
2022-11-01T05:04:54.732Z,26.00
2022-11-01T05:05:49.969Z,25.90
2022-11-01T05:06:45.201Z,29.20
2022-11-01T05:07:40.441Z,26.50
2022-11-01T05:08:37.033Z,24.70
2022-11-01T05:09:32.574Z,29.30
2022-11-01T05:10:27.521Z,27.00
2022-11-01T05:11:22.864Z,25.60
2022-11-01T05:12:18.216Z,26.60
2022-11-01T05:13:13.327Z,25.00
2022-11-01T05:14:08.402Z,24.40
2022-11-01T05:15:03.843Z,29.30
2022-11-01T05:16:54.536Z,26.40
2022-11-01T05:17:48.537Z,32.70
2022-11-01T05:18:43.624Z,30.30
2022-11-01T05:19:38.697Z,28.10
2022-11-01T05:20:33.789Z,28.80
2022-11-01T05:21:28.960Z,31.90
2022-11-01T05:22:25.684Z,31.80
2022-11-01T05:23:21.049Z,29.00
2022-11-01T05:24:16.123Z,28.00
2022-11-01T05:25:11.339Z,30.70
2022-11-01T05:26:06.691Z,30.40
2022-11-01T05:27:01.928Z,31.10
2022-11-01T05:27:57.144Z,32.40
2022-11-01T05:28:52.389Z,29.80
2022-11-01T05:29:47.623Z,31.60
2022-11-01T05:30:43.000Z,33.80
2022-11-01T05:31:38.342Z,33.40
2022-11-01T05:32:33.443Z,27.10
2022-11-01T05:33:28.651Z,29.70
2022-11-01T05:34:23.926Z,24.90
2022-11-01T05:35:18.872Z,27.00
2022-11-01T05:36:13.940Z,25.00
2022-11-01T05:37:09.071Z,27.70
2022-11-01T05:38:07.150Z,24.40
2022-11-01T05:39:02.507Z,28.00
2022-11-01T05:39:57.735Z,27.60
2022-11-01T05:40:52.832Z,28.40
2022-11-01T05:41:47.900Z,27.60
2022-11-01T05:42:43.013Z,29.00
2022-11-01T05:43:38.115Z,28.50
2022-11-01T05:44:33.077Z,28.50
2022-11-01T05:45:28.191Z,26.00
2022-11-01T05:46:23.255Z,27.40
2022-11-01T05:47:18.376Z,27.30
2022-11-01T05:48:13.481Z,25.50
2022-11-01T05:49:08.431Z,31.40
2022-11-01T05:50:03.513Z,27.50
2022-11-01T05:50:58.519Z,27.20
2022-11-01T05:51:53.551Z,27.60
2022-11-01T05:52:48.663Z,25.90
2022-11-01T05:53:43.776Z,26.60
2022-11-01T05:54:38.782Z,25.50
2022-11-01T05:55:34.472Z,31.30
2022-11-01T05:56:29.803Z,30.10
2022-11-01T05:57:27.599Z,27.90
2022-11-01T05:58:21.788Z,26.60
2022-11-01T05:59:16.210Z,23.70
2022-11-01T06:00:12.173Z,27.00
2022-11-01T06:01:07.355Z,28.30
2022-11-01T06:02:03.063Z,25.10
2022-11-01T06:02:58.711Z,28.90
2022-11-01T06:03:53.917Z,26.60
2022-11-01T06:04:49.299Z,29.10
2022-11-01T06:05:45.561Z,28.50
2022-11-01T06:06:40.842Z,24.00
2022-11-01T06:07:36.565Z,27.20
2022-11-01T06:08:31.826Z,28.20
2022-11-01T06:09:27.377Z,29.60
2022-11-01T06:10:23.130Z,27.00
2022-11-01T06:11:18.528Z,32.20
2022-11-01T06:12:14.287Z,25.30
2022-11-01T06:13:09.600Z,27.50
2022-11-01T06:14:05.075Z,29.30
2022-11-01T06:15:00.732Z,26.90
2022-11-01T06:15:56.119Z,29.10
2022-11-01T06:16:51.470Z,26.20
2022-11-01T06:17:47.808Z,28.60
2022-11-01T06:18:43.236Z,25.70
2022-11-01T06:19:38.905Z,29.80
2022-11-01T06:20:34.285Z,30.10
2022-11-01T06:21:30.496Z,31.80
2022-11-01T06:22:25.655Z,30.20
2022-11-01T06:23:21.051Z,32.20
2022-11-01T06:24:16.852Z,28.70
2022-11-01T06:25:12.279Z,32.50
2022-11-01T06:26:07.661Z,32.80
2022-11-01T06:27:04.131Z,30.60
2022-11-01T06:27:58.976Z,30.10
2022-11-01T06:28:54.176Z,30.90
2022-11-01T06:29:50.785Z,34.20
2022-11-01T06:30:46.355Z,28.50
2022-11-01T06:31:42.136Z,27.30
2022-11-01T06:32:37.510Z,35.50
2022-11-01T06:33:33.063Z,31.40
2022-11-01T06:34:28.709Z,30.10
2022-11-01T06:35:24.189Z,36.80
2022-11-01T06:36:19.848Z,34.50
2022-11-01T06:37:15.258Z,38.40
2022-11-01T06:38:10.661Z,31.90
2022-11-01T06:39:06.464Z,32.90
2022-11-01T06:40:01.877Z,36.10
2022-11-01T06:40:57.515Z,32.20
2022-11-01T06:41:53.860Z,32.70
2022-11-01T06:42:49.365Z,34.70
2022-11-01T06:43:45.169Z,31.90
2022-11-01T06:44:40.528Z,29.10
2022-11-01T06:45:35.971Z,34.50
2022-11-01T06:46:31.655Z,33.20
2022-11-01T06:47:27.164Z,30.70
2022-11-01T06:48:22.860Z,33.20
2022-11-01T06:49:19.329Z,28.10
2022-11-01T06:50:13.694Z,33.80
2022-11-01T06:51:09.419Z,33.90
2022-11-01T06:52:04.867Z,32.70
2022-11-01T06:53:00.298Z,33.80
2022-11-01T06:53:55.713Z,31.90
2022-11-01T06:54:51.450Z,34.70
2022-11-01T06:55:47.094Z,33.60
2022-11-01T06:56:42.596Z,34.80
2022-11-01T06:57:38.235Z,32.80
2022-11-01T06:58:33.721Z,31.00
2022-11-01T06:59:29.561Z,34.90
2022-11-01T07:00:25.167Z,33.60
2022-11-01T07:01:20.634Z,36.20
2022-11-01T07:02:19.398Z,38.50
2022-11-01T07:03:11.917Z,31.50
2022-11-01T07:04:07.610Z,32.90
2022-11-01T07:05:03.687Z,33.20
2022-11-01T07:05:59.183Z,35.90
2022-11-01T07:06:55.374Z,34.30
2022-11-01T07:07:50.624Z,32.20
2022-11-01T07:08:46.130Z,35.20
2022-11-01T07:09:41.855Z,34.70
2022-11-01T07:10:37.340Z,35.10
2022-11-01T07:11:32.829Z,32.60
2022-11-01T07:12:28.656Z,29.80
2022-11-01T07:13:23.993Z,29.30
2022-11-01T07:14:19.061Z,30.40
2022-11-01T07:15:14.169Z,33.70
2022-11-01T07:16:09.236Z,30.10
2022-11-01T07:17:04.216Z,28.40
2022-11-01T07:17:59.487Z,32.30
2022-11-01T07:18:54.417Z,31.10
2022-11-01T07:19:49.519Z,32.60
2022-11-01T07:21:39.754Z,30.90
2022-11-01T07:22:34.719Z,30.80
2022-11-01T07:23:29.816Z,37.60
2022-11-01T07:24:24.897Z,28.10
2022-11-01T07:25:20.028Z,28.50
2022-11-01T07:26:15.197Z,29.20
2022-11-01T07:27:10.555Z,25.90
2022-11-01T07:28:06.421Z,27.30
2022-11-01T07:29:01.839Z,28.20
2022-11-01T07:29:57.319Z,29.20
2022-11-01T07:30:53.132Z,31.90
2022-11-01T07:31:48.621Z,28.30
2022-11-01T07:32:44.646Z,32.30
2022-11-01T07:33:39.916Z,30.50
2022-11-01T07:34:35.403Z,27.60
2022-11-01T07:35:31.390Z,28.10
2022-11-01T07:36:26.642Z,27.40
2022-11-01T07:37:22.343Z,27.30
2022-11-01T07:38:18.739Z,27.60
2022-11-01T07:39:13.897Z,23.80
2022-11-01T07:40:09.795Z,27.70
2022-11-01T07:41:05.188Z,29.30
2022-11-01T07:42:00.676Z,24.30
2022-11-01T07:42:56.477Z,24.20
2022-11-01T07:43:51.975Z,27.20
2022-11-01T07:44:47.890Z,24.60
2022-11-01T07:45:43.275Z,28.60
2022-11-01T07:46:38.759Z,25.90
2022-11-01T07:47:34.780Z,25.40
2022-11-01T07:48:30.042Z,22.90
2022-11-01T07:49:25.525Z,26.90
2022-11-01T07:50:21.869Z,26.30
2022-11-01T07:51:17.358Z,26.80
2022-11-01T07:52:13.272Z,25.90
2022-11-01T07:53:08.780Z,27.10
2022-11-01T07:54:04.279Z,24.80
2022-11-01T07:55:00.080Z,25.50
2022-11-01T07:55:55.494Z,25.30
2022-11-01T07:56:51.518Z,24.80
2022-11-01T07:57:46.902Z,23.50
2022-11-01T07:58:42.376Z,25.60
2022-11-01T07:59:38.360Z,25.90
2022-11-01T08:01:29.712Z,25.70
2022-11-01T08:02:25.689Z,22.60
2022-11-01T08:03:21.126Z,28.10
2022-11-01T08:04:17.064Z,22.60
2022-11-01T08:05:12.571Z,23.50
2022-11-01T08:06:08.160Z,22.90
2022-11-01T08:07:04.148Z,23.90
2022-11-01T08:07:59.536Z,22.50
2022-11-01T08:08:55.212Z,26.70
2022-11-01T08:09:50.585Z,21.70
2022-11-01T08:10:46.081Z,24.50
2022-11-01T08:11:41.835Z,24.20
2022-11-01T08:12:37.474Z,27.00
2022-11-01T08:13:32.816Z,21.40
2022-11-01T08:14:29.543Z,21.90
2022-11-01T08:15:25.024Z,23.40
2022-11-01T08:16:20.800Z,24.90
2022-11-01T08:17:16.321Z,22.00
2022-11-01T08:18:11.835Z,20.80
2022-11-01T08:19:07.634Z,22.90
2022-11-01T08:20:03.111Z,21.90
2022-11-01T08:20:58.869Z,21.10
2022-11-01T08:21:54.241Z,19.20
2022-11-01T08:22:49.746Z,20.00
2022-11-01T08:23:45.180Z,17.10
2022-11-01T08:24:40.572Z,21.00
2022-11-01T08:25:37.216Z,20.70
2022-11-01T08:26:32.380Z,18.90
2022-11-01T08:27:30.345Z,16.80
2022-11-01T08:28:23.761Z,21.30
2022-11-01T08:29:19.060Z,14.40
2022-11-01T08:30:14.871Z,18.10
2022-11-01T08:31:10.269Z,15.30
2022-11-01T08:32:05.970Z,14.00
2022-11-01T08:33:01.765Z,15.00
2022-11-01T08:33:57.106Z,18.40
2022-11-01T08:34:52.779Z,14.60
2022-11-01T08:35:50.684Z,17.70
2022-11-01T08:36:43.706Z,19.80
2022-11-01T08:37:38.721Z,13.00
2022-11-01T08:38:33.866Z,13.90
2022-11-01T08:39:29.064Z,20.40
2022-11-01T08:40:24.150Z,15.40
2022-11-01T08:41:19.155Z,13.40
2022-11-01T08:42:14.174Z,15.00
2022-11-01T08:43:09.264Z,15.20
2022-11-01T08:44:04.498Z,17.30
2022-11-01T08:44:59.372Z,14.00
2022-11-01T08:45:54.476Z,14.20
2022-11-01T08:46:50.182Z,15.30
2022-11-01T08:47:45.708Z,14.60
2022-11-01T08:48:41.385Z,13.20
2022-11-01T08:49:36.525Z,16.00
2022-11-01T08:50:33.255Z,15.10
2022-11-01T08:51:28.668Z,15.50
2022-11-01T08:52:24.295Z,15.90
2022-11-01T08:53:20.082Z,17.50
2022-11-01T08:54:14.733Z,15.10
2022-11-01T08:55:09.847Z,15.20
2022-11-01T08:56:04.933Z,16.70
2022-11-01T08:56:59.974Z,16.00
2022-11-01T08:57:55.192Z,15.20
2022-11-01T08:58:50.152Z,17.10
2022-11-01T08:59:45.254Z,16.50
2022-11-01T09:00:40.476Z,17.80
2022-11-01T09:01:38.612Z,20.90
2022-11-01T09:02:33.610Z,12.60
2022-11-01T09:03:28.724Z,16.90
2022-11-01T09:04:23.672Z,14.00
2022-11-01T09:05:18.778Z,16.40
2022-11-01T09:06:13.857Z,19.20
2022-11-01T09:07:08.938Z,13.40
2022-11-01T09:08:04.247Z,15.10
2022-11-01T09:08:59.019Z,17.80
2022-11-01T09:09:54.351Z,17.30
2022-11-01T09:10:51.167Z,15.00
2022-11-01T09:11:46.515Z,14.30
2022-11-01T09:12:42.433Z,14.10
2022-11-01T09:13:37.938Z,14.70
2022-11-01T09:14:33.454Z,14.00
2022-11-01T09:15:29.381Z,15.00
2022-11-01T09:16:24.864Z,15.80
2022-11-01T09:17:20.651Z,15.00
2022-11-01T09:18:16.125Z,14.40
2022-11-01T09:19:11.642Z,13.50
2022-11-01T09:20:07.566Z,17.60
2022-11-01T09:21:03.014Z,14.40
2022-11-01T09:21:58.512Z,11.50
2022-11-01T09:22:54.843Z,12.70
2022-11-01T09:23:50.352Z,11.70
2022-11-01T09:24:46.221Z,12.00
2022-11-01T09:25:41.732Z,12.00
2022-11-01T09:26:37.195Z,11.00
2022-11-01T09:27:32.999Z,13.50
2022-11-01T09:28:32.798Z,14.90
2022-11-01T09:29:25.590Z,11.50
2022-11-01T09:30:19.721Z,13.10
2022-11-01T09:31:20.908Z,14.20
2022-11-01T09:32:12.947Z,12.10
2022-11-01T09:33:07.525Z,13.10
2022-11-01T09:34:02.879Z,12.60
2022-11-01T09:34:59.362Z,11.70
2022-11-01T09:35:59.312Z,10.50
2022-11-01T09:36:50.768Z,12.10
2022-11-01T09:37:46.278Z,10.30
2022-11-01T09:38:41.816Z,10.00
2022-11-01T09:39:37.403Z,11.00
2022-11-01T09:40:32.907Z,11.70
2022-11-01T09:41:28.707Z,15.20
2022-11-01T09:42:24.103Z,9.60
2022-11-01T09:43:19.604Z,10.10
2022-11-01T09:44:15.428Z,9.70
2022-11-01T09:45:10.661Z,11.50
2022-11-01T09:46:06.163Z,9.30
2022-11-01T09:47:02.821Z,11.10
2022-11-01T09:47:57.881Z,8.10
2022-11-01T09:48:53.766Z,8.30
2022-11-01T09:49:49.236Z,10.60
2022-11-01T09:50:44.625Z,6.70
2022-11-01T09:51:40.527Z,10.40
2022-11-01T09:52:36.010Z,8.90
2022-11-01T09:53:31.965Z,10.20
2022-11-01T09:54:27.162Z,8.20
2022-11-01T09:55:22.653Z,11.40
2022-11-01T09:56:18.410Z,7.10
2022-11-01T09:57:13.846Z,8.60
2022-11-01T09:58:09.391Z,9.40
2022-11-01T09:59:05.599Z,10.10
2022-11-01T10:00:01.110Z,10.80
2022-11-01T10:00:56.682Z,7.90
2022-11-01T10:01:52.242Z,8.20
2022-11-01T10:02:47.832Z,7.70
2022-11-01T10:03:43.271Z,9.60
2022-11-01T10:04:38.994Z,8.00
2022-11-01T10:05:34.420Z,9.30
2022-11-01T10:06:29.851Z,7.40
2022-11-01T10:07:25.585Z,7.10
2022-11-01T10:08:21.019Z,6.00
2022-11-01T10:09:16.564Z,8.10
2022-11-01T10:10:12.840Z,11.20
2022-11-01T10:11:08.612Z,7.40
2022-11-01T10:12:04.027Z,7.30
2022-11-01T10:12:59.400Z,8.90
2022-11-01T10:13:54.946Z,7.10
2022-11-01T10:14:50.627Z,9.10
2022-11-01T10:15:46.120Z,7.00
2022-11-01T10:16:41.850Z,9.20
2022-11-01T10:17:37.274Z,9.30
2022-11-01T10:18:32.829Z,9.80
2022-11-01T10:19:28.134Z,8.50
2022-11-01T10:20:23.525Z,9.20
2022-11-01T10:21:19.073Z,7.60
2022-11-01T10:22:14.051Z,9.00
2022-11-01T10:23:09.065Z,8.30
2022-11-01T10:24:08.974Z,7.10
2022-11-01T10:25:04.312Z,6.30
2022-11-01T10:25:59.764Z,8.10
2022-11-01T10:26:55.306Z,7.70
2022-11-01T10:27:51.990Z,7.60
2022-11-01T10:28:47.471Z,8.50
2022-11-01T10:29:42.963Z,9.30
2022-11-01T10:30:38.473Z,8.60
2022-11-01T10:31:33.536Z,9.30
2022-11-01T10:32:28.647Z,6.90
2022-11-01T10:33:23.722Z,8.50
2022-11-01T10:34:18.794Z,7.80
2022-11-01T10:35:13.872Z,8.00
2022-11-01T10:36:08.942Z,9.00
2022-11-01T10:37:04.047Z,7.20
2022-11-01T10:38:11.113Z,7.50
2022-11-01T10:39:55.538Z,7.80
2022-11-01T10:40:45.328Z,7.90
2022-11-01T10:41:39.160Z,8.80
2022-11-01T10:42:34.216Z,6.30
2022-11-01T10:43:29.347Z,8.40
2022-11-01T10:44:24.388Z,6.70
2022-11-01T10:45:19.474Z,5.90
2022-11-01T10:46:19.573Z,5.00
2022-11-01T10:47:15.041Z,5.80
2022-11-01T10:48:10.509Z,5.80
2022-11-01T10:49:06.433Z,6.10
2022-11-01T10:50:06.493Z,10.20
2022-11-01T10:50:58.384Z,4.50
2022-11-01T10:51:53.106Z,5.20
2022-11-01T10:52:48.718Z,7.70
2022-11-01T10:53:44.219Z,5.30
2022-11-01T10:54:39.655Z,6.00
2022-11-01T10:55:36.114Z,6.40
2022-11-01T10:56:31.950Z,6.40
2022-11-01T10:57:27.563Z,12.40
2022-11-01T10:58:22.894Z,5.80
2022-11-01T10:59:18.386Z,4.20
2022-11-01T11:00:14.265Z,5.90
2022-11-01T11:01:10.006Z,8.60
2022-11-01T11:02:05.781Z,7.90
2022-11-01T11:03:01.093Z,5.30
2022-11-01T11:03:56.711Z,5.20
2022-11-01T11:04:52.872Z,3.20
2022-11-01T11:05:48.450Z,6.00
2022-11-01T11:06:43.787Z,4.10
2022-11-01T11:07:40.251Z,5.30
2022-11-01T11:08:35.729Z,6.70
2022-11-01T11:09:31.619Z,6.00
2022-11-01T11:10:27.133Z,4.90
2022-11-01T11:11:22.612Z,5.80
2022-11-01T11:12:18.423Z,5.50
2022-11-01T11:13:13.863Z,4.60
2022-11-01T11:14:09.759Z,5.40
2022-11-01T11:15:05.253Z,4.90
2022-11-01T11:16:00.675Z,5.30
2022-11-01T11:16:56.349Z,4.80
2022-11-01T11:17:51.953Z,5.40
2022-11-01T11:18:47.380Z,3.80
2022-11-01T11:19:43.713Z,5.50
2022-11-01T11:20:39.208Z,4.80
2022-11-01T11:21:35.088Z,4.50
2022-11-01T11:22:30.432Z,6.20
2022-11-01T11:23:25.996Z,7.20
2022-11-01T11:24:21.741Z,5.20
2022-11-01T11:25:17.061Z,5.40
2022-11-01T11:26:13.105Z,3.00
2022-11-01T11:27:08.345Z,4.40
2022-11-01T11:28:04.113Z,3.20
2022-11-01T11:28:59.616Z,4.70
2022-11-01T11:29:55.122Z,7.40
2022-11-01T11:30:50.674Z,4.10
2022-11-01T11:31:46.847Z,4.00
2022-11-01T11:32:42.328Z,3.30
2022-11-01T11:33:38.224Z,5.20
2022-11-01T11:34:33.674Z,5.50
2022-11-01T11:35:29.276Z,5.60
2022-11-01T11:36:24.219Z,6.50
2022-11-01T11:37:19.187Z,4.70
2022-11-01T11:38:14.286Z,5.10
2022-11-01T11:39:09.510Z,5.00
2022-11-01T11:40:04.553Z,4.30
2022-11-01T11:40:59.584Z,4.40
2022-11-01T11:41:54.888Z,3.00
2022-11-01T11:42:49.624Z,4.10
2022-11-01T11:43:44.632Z,7.20
2022-11-01T11:44:39.635Z,4.40
2022-11-01T11:45:34.678Z,6.20
2022-11-01T11:46:29.712Z,5.10
2022-11-01T11:47:25.067Z,4.70
2022-11-01T11:48:19.859Z,5.30
2022-11-01T11:49:15.460Z,6.50
2022-11-01T11:50:11.057Z,7.10
2022-11-01T11:51:06.821Z,6.50
2022-11-01T11:52:02.321Z,8.30
2022-11-01T11:52:58.084Z,6.00
2022-11-01T11:53:53.414Z,5.40
2022-11-01T11:54:48.913Z,5.00
2022-11-01T11:55:44.075Z,8.40
2022-11-01T11:56:39.098Z,6.10
2022-11-01T11:57:34.226Z,4.80
2022-11-01T11:58:29.635Z,6.10
2022-11-01T11:59:24.309Z,5.60
2022-11-01T12:00:24.846Z,4.90
2022-11-01T12:01:20.304Z,6.50
2022-11-01T12:02:16.100Z,4.70